sensor_id;sensor_type;location;lat;lon;timestamp;temperature;humidity
9033;DHT22;4551;53.164;8.210;2023-05-09T00:00:14;16.00;99.90
9033;DHT22;4551;53.164;8.210;2023-05-09T00:02:42;16.00;99.90
9033;DHT22;4551;53.164;8.210;2023-05-09T00:05:11;16.00;99.90
9033;DHT22;4551;53.164;8.210;2023-05-09T00:07:41;16.00;99.90
9033;DHT22;4551;53.164;8.210;2023-05-09T00:10:10;16.00;99.90
9033;DHT22;4551;53.164;8.210;2023-05-09T00:12:38;15.90;99.90
9033;DHT22;4551;53.164;8.210;2023-05-09T00:15:07;15.90;99.90
9033;DHT22;4551;53.164;8.210;2023-05-09T00:17:35;15.80;99.90
9033;DHT22;4551;53.164;8.210;2023-05-09T00:20:05;15.80;99.90
9033;DHT22;4551;53.164;8.210;2023-05-09T00:22:37;15.80;99.90
9033;DHT22;4551;53.164;8.210;2023-05-09T00:25:06;15.80;99.90
9033;DHT22;4551;53.164;8.210;2023-05-09T00:27:35;15.80;99.90
9033;DHT22;4551;53.164;8.210;2023-05-09T00:30:04;15.70;99.90
9033;DHT22;4551;53.164;8.210;2023-05-09T00:32:32;15.70;99.90
9033;DHT22;4551;53.164;8.210;2023-05-09T00:35:00;15.60;99.90
9033;DHT22;4551;53.164;8.210;2023-05-09T00:37:29;15.60;99.90
9033;DHT22;4551;53.164;8.210;2023-05-09T00:39:57;15.60;99.90
9033;DHT22;4551;53.164;8.210;2023-05-09T00:42:25;15.50;99.90
9033;DHT22;4551;53.164;8.210;2023-05-09T00:44:55;15.50;99.90
9033;DHT22;4551;53.164;8.210;2023-05-09T00:47:23;15.50;99.90
9033;DHT22;4551;53.164;8.210;2023-05-09T00:49:51;15.50;99.90
9033;DHT22;4551;53.164;8.210;2023-05-09T00:52:19;15.50;99.90
9033;DHT22;4551;53.164;8.210;2023-05-09T00:57:17;15.40;99.90
9033;DHT22;4551;53.164;8.210;2023-05-09T00:59:45;15.40;99.90
9033;DHT22;4551;53.164;8.210;2023-05-09T01:02:14;15.30;99.90
9033;DHT22;4551;53.164;8.210;2023-05-09T01:04:43;15.30;99.90
9033;DHT22;4551;53.164;8.210;2023-05-09T01:07:13;15.20;99.90
9033;DHT22;4551;53.164;8.210;2023-05-09T01:09:45;15.20;99.90
9033;DHT22;4551;53.164;8.210;2023-05-09T01:12:17;15.20;99.90
9033;DHT22;4551;53.164;8.210;2023-05-09T01:14:49;15.10;99.90
9033;DHT22;4551;53.164;8.210;2023-05-09T01:17:23;15.10;99.90
9033;DHT22;4551;53.164;8.210;2023-05-09T01:19:58;15.10;99.90
9033;DHT22;4551;53.164;8.210;2023-05-09T01:22:28;15.10;99.90
9033;DHT22;4551;53.164;8.210;2023-05-09T01:25:01;15.00;99.90
9033;DHT22;4551;53.164;8.210;2023-05-09T01:27:36;15.00;99.90
9033;DHT22;4551;53.164;8.210;2023-05-09T01:30:11;15.00;99.90
9033;DHT22;4551;53.164;8.210;2023-05-09T01:32:41;14.90;99.90
9033;DHT22;4551;53.164;8.210;2023-05-09T01:35:10;14.90;99.90
9033;DHT22;4551;53.164;8.210;2023-05-09T01:37:40;14.90;99.90
9033;DHT22;4551;53.164;8.210;2023-05-09T01:40:10;14.90;99.90
9033;DHT22;4551;53.164;8.210;2023-05-09T01:42:41;14.80;99.90
9033;DHT22;4551;53.164;8.210;2023-05-09T01:45:10;14.80;99.90
9033;DHT22;4551;53.164;8.210;2023-05-09T01:47:41;14.80;99.90
9033;DHT22;4551;53.164;8.210;2023-05-09T01:50:10;14.80;99.90
9033;DHT22;4551;53.164;8.210;2023-05-09T01:52:38;14.70;99.90
9033;DHT22;4551;53.164;8.210;2023-05-09T01:55:07;14.70;99.90
9033;DHT22;4551;53.164;8.210;2023-05-09T01:57:36;14.70;99.90
9033;DHT22;4551;53.164;8.210;2023-05-09T02:00:04;14.70;99.90
9033;DHT22;4551;53.164;8.210;2023-05-09T02:02:33;14.60;99.90
9033;DHT22;4551;53.164;8.210;2023-05-09T02:05:04;14.60;99.90
9033;DHT22;4551;53.164;8.210;2023-05-09T02:07:32;14.60;99.90
9033;DHT22;4551;53.164;8.210;2023-05-09T02:10:01;14.50;99.90
9033;DHT22;4551;53.164;8.210;2023-05-09T02:12:30;14.50;99.90
9033;DHT22;4551;53.164;8.210;2023-05-09T02:14:58;14.40;99.90
9033;DHT22;4551;53.164;8.210;2023-05-09T02:17:26;14.40;99.90
9033;DHT22;4551;53.164;8.210;2023-05-09T02:19:56;14.40;99.90
9033;DHT22;4551;53.164;8.210;2023-05-09T02:22:26;14.40;99.90
9033;DHT22;4551;53.164;8.210;2023-05-09T02:24:55;14.30;99.90
9033;DHT22;4551;53.164;8.210;2023-05-09T02:27:23;14.30;99.90
9033;DHT22;4551;53.164;8.210;2023-05-09T02:29:53;14.30;99.90
9033;DHT22;4551;53.164;8.210;2023-05-09T02:32:24;14.30;99.90
9033;DHT22;4551;53.164;8.210;2023-05-09T02:34:53;14.20;99.90
9033;DHT22;4551;53.164;8.210;2023-05-09T02:37:22;14.20;99.90
9033;DHT22;4551;53.164;8.210;2023-05-09T02:39:52;14.20;99.90
9033;DHT22;4551;53.164;8.210;2023-05-09T02:42:20;14.20;99.90
9033;DHT22;4551;53.164;8.210;2023-05-09T02:44:50;14.20;99.90
9033;DHT22;4551;53.164;8.210;2023-05-09T02:47:19;14.10;99.90
9033;DHT22;4551;53.164;8.210;2023-05-09T02:49:47;14.10;99.90
9033;DHT22;4551;53.164;8.210;2023-05-09T02:52:15;14.10;99.90
9033;DHT22;4551;53.164;8.210;2023-05-09T02:54:43;14.00;99.90
9033;DHT22;4551;53.164;8.210;2023-05-09T02:57:13;14.00;99.90
9033;DHT22;4551;53.164;8.210;2023-05-09T02:59:41;14.00;99.90
9033;DHT22;4551;53.164;8.210;2023-05-09T03:02:09;14.00;99.90
9033;DHT22;4551;53.164;8.210;2023-05-09T03:04:37;14.00;99.90
9033;DHT22;4551;53.164;8.210;2023-05-09T03:07:05;13.90;99.90
9033;DHT22;4551;53.164;8.210;2023-05-09T03:09:33;13.90;99.90
9033;DHT22;4551;53.164;8.210;2023-05-09T03:12:01;14.00;99.90
9033;DHT22;4551;53.164;8.210;2023-05-09T03:14:31;13.90;99.90
9033;DHT22;4551;53.164;8.210;2023-05-09T03:16:59;13.80;99.90
9033;DHT22;4551;53.164;8.210;2023-05-09T03:19:27;13.80;99.90
9033;DHT22;4551;53.164;8.210;2023-05-09T03:21:55;13.70;99.90
9033;DHT22;4551;53.164;8.210;2023-05-09T03:24:25;13.70;99.90
9033;DHT22;4551;53.164;8.210;2023-05-09T03:26:54;13.70;99.90
9033;DHT22;4551;53.164;8.210;2023-05-09T03:29:22;13.70;99.90
9033;DHT22;4551;53.164;8.210;2023-05-09T03:31:51;13.70;99.90
9033;DHT22;4551;53.164;8.210;2023-05-09T03:34:19;13.60;99.90
9033;DHT22;4551;53.164;8.210;2023-05-09T03:36:47;13.60;99.90
9033;DHT22;4551;53.164;8.210;2023-05-09T03:39:15;13.70;99.90
9033;DHT22;4551;53.164;8.210;2023-05-09T03:41:43;13.60;99.90
9033;DHT22;4551;53.164;8.210;2023-05-09T03:44:11;13.50;99.90
9033;DHT22;4551;53.164;8.210;2023-05-09T03:46:39;13.50;99.90
9033;DHT22;4551;53.164;8.210;2023-05-09T03:49:09;13.50;99.90
9033;DHT22;4551;53.164;8.210;2023-05-09T03:51:37;13.40;99.90
9033;DHT22;4551;53.164;8.210;2023-05-09T03:54:07;13.40;99.90
9033;DHT22;4551;53.164;8.210;2023-05-09T03:56:35;13.40;99.90
9033;DHT22;4551;53.164;8.210;2023-05-09T03:59:03;13.40;99.90
9033;DHT22;4551;53.164;8.210;2023-05-09T04:01:32;13.40;99.90
9033;DHT22;4551;53.164;8.210;2023-05-09T04:04:00;13.40;99.90
9033;DHT22;4551;53.164;8.210;2023-05-09T04:06:29;13.30;99.90
9033;DHT22;4551;53.164;8.210;2023-05-09T04:08:58;13.30;99.90
9033;DHT22;4551;53.164;8.210;2023-05-09T04:11:27;13.40;99.90
9033;DHT22;4551;53.164;8.210;2023-05-09T04:13:57;13.30;99.90
9033;DHT22;4551;53.164;8.210;2023-05-09T04:16:25;13.40;99.90
9033;DHT22;4551;53.164;8.210;2023-05-09T04:18:53;13.40;99.90
9033;DHT22;4551;53.164;8.210;2023-05-09T04:21:21;13.40;99.90
9033;DHT22;4551;53.164;8.210;2023-05-09T04:23:50;13.40;99.90
9033;DHT22;4551;53.164;8.210;2023-05-09T04:26:19;13.50;99.90
9033;DHT22;4551;53.164;8.210;2023-05-09T04:28:48;13.50;99.90
9033;DHT22;4551;53.164;8.210;2023-05-09T04:31:16;13.50;99.90
9033;DHT22;4551;53.164;8.210;2023-05-09T04:33:46;13.50;99.90
9033;DHT22;4551;53.164;8.210;2023-05-09T04:36:14;13.50;99.90
9033;DHT22;4551;53.164;8.210;2023-05-09T04:38:42;13.60;99.90
9033;DHT22;4551;53.164;8.210;2023-05-09T04:41:12;13.60;99.90
9033;DHT22;4551;53.164;8.210;2023-05-09T04:43:40;13.60;99.90
9033;DHT22;4551;53.164;8.210;2023-05-09T04:46:09;13.60;99.90
9033;DHT22;4551;53.164;8.210;2023-05-09T04:48:37;13.70;99.90
9033;DHT22;4551;53.164;8.210;2023-05-09T04:51:05;13.60;99.90
9033;DHT22;4551;53.164;8.210;2023-05-09T04:53:33;13.70;99.90
9033;DHT22;4551;53.164;8.210;2023-05-09T04:56:01;13.70;99.90
9033;DHT22;4551;53.164;8.210;2023-05-09T04:58:30;13.70;99.90
9033;DHT22;4551;53.164;8.210;2023-05-09T05:01:00;13.80;99.90
9033;DHT22;4551;53.164;8.210;2023-05-09T05:03:28;13.80;99.90
9033;DHT22;4551;53.164;8.210;2023-05-09T05:05:56;13.80;99.90
9033;DHT22;4551;53.164;8.210;2023-05-09T05:08:24;13.90;99.90
9033;DHT22;4551;53.164;8.210;2023-05-09T05:10:52;13.90;99.90
9033;DHT22;4551;53.164;8.210;2023-05-09T05:13:20;13.90;99.90
9033;DHT22;4551;53.164;8.210;2023-05-09T05:15:50;13.90;99.90
9033;DHT22;4551;53.164;8.210;2023-05-09T05:18:18;14.00;99.90
9033;DHT22;4551;53.164;8.210;2023-05-09T05:20:46;14.00;99.90
9033;DHT22;4551;53.164;8.210;2023-05-09T05:23:14;14.10;99.90
9033;DHT22;4551;53.164;8.210;2023-05-09T05:25:42;14.10;99.90
9033;DHT22;4551;53.164;8.210;2023-05-09T05:28:10;14.10;99.90
9033;DHT22;4551;53.164;8.210;2023-05-09T05:30:38;14.10;99.90
9033;DHT22;4551;53.164;8.210;2023-05-09T05:33:08;14.20;99.90
9033;DHT22;4551;53.164;8.210;2023-05-09T05:35:36;14.20;99.90
9033;DHT22;4551;53.164;8.210;2023-05-09T05:38:04;14.20;99.90
9033;DHT22;4551;53.164;8.210;2023-05-09T05:40:32;14.30;99.90
9033;DHT22;4551;53.164;8.210;2023-05-09T05:43:00;14.40;99.90
9033;DHT22;4551;53.164;8.210;2023-05-09T05:45:28;14.50;99.90
9033;DHT22;4551;53.164;8.210;2023-05-09T05:47:57;14.50;99.90
9033;DHT22;4551;53.164;8.210;2023-05-09T05:50:26;14.50;99.90
9033;DHT22;4551;53.164;8.210;2023-05-09T05:52:54;14.60;99.90
9033;DHT22;4551;53.164;8.210;2023-05-09T05:55:22;14.70;99.90
9033;DHT22;4551;53.164;8.210;2023-05-09T05:57:50;14.70;99.90
9033;DHT22;4551;53.164;8.210;2023-05-09T06:00:18;14.70;99.90
9033;DHT22;4551;53.164;8.210;2023-05-09T06:02:46;14.80;99.90
9033;DHT22;4551;53.164;8.210;2023-05-09T06:05:14;14.70;99.90
9033;DHT22;4551;53.164;8.210;2023-05-09T06:07:44;14.80;99.90
9033;DHT22;4551;53.164;8.210;2023-05-09T06:10:12;14.90;99.90
9033;DHT22;4551;53.164;8.210;2023-05-09T06:12:41;15.00;99.90
9033;DHT22;4551;53.164;8.210;2023-05-09T06:15:09;15.00;99.90
9033;DHT22;4551;53.164;8.210;2023-05-09T06:17:38;15.10;99.90
9033;DHT22;4551;53.164;8.210;2023-05-09T06:20:07;15.30;99.90
9033;DHT22;4551;53.164;8.210;2023-05-09T06:22:35;15.30;99.90
9033;DHT22;4551;53.164;8.210;2023-05-09T06:25:04;15.40;99.90
9033;DHT22;4551;53.164;8.210;2023-05-09T06:27:36;15.50;99.90
9033;DHT22;4551;53.164;8.210;2023-05-09T06:30:05;15.50;99.90
9033;DHT22;4551;53.164;8.210;2023-05-09T06:32:51;15.50;99.90
9033;DHT22;4551;53.164;8.210;2023-05-09T06:35:19;15.70;99.90
9033;DHT22;4551;53.164;8.210;2023-05-09T06:37:47;15.70;99.90
9033;DHT22;4551;53.164;8.210;2023-05-09T06:40:17;15.70;99.90
9033;DHT22;4551;53.164;8.210;2023-05-09T06:42:45;15.80;99.90
9033;DHT22;4551;53.164;8.210;2023-05-09T06:45:14;15.70;99.90
9033;DHT22;4551;53.164;8.210;2023-05-09T06:47:43;15.80;99.90
9033;DHT22;4551;53.164;8.210;2023-05-09T06:50:12;15.80;99.90
9033;DHT22;4551;53.164;8.210;2023-05-09T06:52:40;15.80;99.90
9033;DHT22;4551;53.164;8.210;2023-05-09T06:55:09;15.80;99.90
9033;DHT22;4551;53.164;8.210;2023-05-09T06:57:38;15.90;99.90
9033;DHT22;4551;53.164;8.210;2023-05-09T07:00:07;15.90;99.90
9033;DHT22;4551;53.164;8.210;2023-05-09T07:02:35;16.00;99.90
9033;DHT22;4551;53.164;8.210;2023-05-09T07:05:07;16.00;99.90
9033;DHT22;4551;53.164;8.210;2023-05-09T07:07:36;16.10;99.90
9033;DHT22;4551;53.164;8.210;2023-05-09T07:10:05;16.20;99.90
9033;DHT22;4551;53.164;8.210;2023-05-09T07:12:39;16.30;99.90
9033;DHT22;4551;53.164;8.210;2023-05-09T07:15:08;16.40;99.90
9033;DHT22;4551;53.164;8.210;2023-05-09T07:17:36;16.30;99.90
9033;DHT22;4551;53.164;8.210;2023-05-09T07:20:05;16.50;99.90
9033;DHT22;4551;53.164;8.210;2023-05-09T07:22:33;16.60;99.90
9033;DHT22;4551;53.164;8.210;2023-05-09T07:25:04;16.60;99.90
9033;DHT22;4551;53.164;8.210;2023-05-09T07:27:32;16.70;99.90
9033;DHT22;4551;53.164;8.210;2023-05-09T07:30:02;16.80;99.90
9033;DHT22;4551;53.164;8.210;2023-05-09T07:32:30;16.90;99.90
9033;DHT22;4551;53.164;8.210;2023-05-09T07:34:58;17.00;99.90
9033;DHT22;4551;53.164;8.210;2023-05-09T07:37:26;17.10;99.90
9033;DHT22;4551;53.164;8.210;2023-05-09T07:39:54;17.10;99.90
9033;DHT22;4551;53.164;8.210;2023-05-09T07:42:22;17.30;99.90
9033;DHT22;4551;53.164;8.210;2023-05-09T07:44:50;17.30;99.90
9033;DHT22;4551;53.164;8.210;2023-05-09T07:47:20;17.30;99.90
9033;DHT22;4551;53.164;8.210;2023-05-09T07:49:48;17.40;99.90
9033;DHT22;4551;53.164;8.210;2023-05-09T07:52:16;17.50;99.90
9033;DHT22;4551;53.164;8.210;2023-05-09T07:54:44;17.60;99.90
9033;DHT22;4551;53.164;8.210;2023-05-09T07:57:12;17.70;99.90
9033;DHT22;4551;53.164;8.210;2023-05-09T07:59:40;17.70;99.90
9033;DHT22;4551;53.164;8.210;2023-05-09T08:02:09;17.80;99.90
9033;DHT22;4551;53.164;8.210;2023-05-09T08:04:38;17.80;99.90
9033;DHT22;4551;53.164;8.210;2023-05-09T08:07:07;17.90;99.90
9033;DHT22;4551;53.164;8.210;2023-05-09T08:09:35;17.90;99.90
9033;DHT22;4551;53.164;8.210;2023-05-09T08:12:03;18.00;99.90
9033;DHT22;4551;53.164;8.210;2023-05-09T08:14:32;18.10;99.90
9033;DHT22;4551;53.164;8.210;2023-05-09T08:17:00;18.10;99.90
9033;DHT22;4551;53.164;8.210;2023-05-09T08:19:28;18.20;99.90
9033;DHT22;4551;53.164;8.210;2023-05-09T08:21:57;18.30;99.90
9033;DHT22;4551;53.164;8.210;2023-05-09T08:24:26;18.40;99.90
9033;DHT22;4551;53.164;8.210;2023-05-09T08:26:55;18.50;99.90
9033;DHT22;4551;53.164;8.210;2023-05-09T08:29:23;18.50;99.90
9033;DHT22;4551;53.164;8.210;2023-05-09T08:31:51;18.60;99.90
9033;DHT22;4551;53.164;8.210;2023-05-09T08:34:19;18.70;99.90
9033;DHT22;4551;53.164;8.210;2023-05-09T08:36:47;18.80;99.90
9033;DHT22;4551;53.164;8.210;2023-05-09T08:39:16;18.90;99.90
9033;DHT22;4551;53.164;8.210;2023-05-09T08:41:45;18.90;99.90
9033;DHT22;4551;53.164;8.210;2023-05-09T08:44:13;19.00;99.90
9033;DHT22;4551;53.164;8.210;2023-05-09T08:46:41;19.10;99.90
9033;DHT22;4551;53.164;8.210;2023-05-09T08:49:11;19.20;99.90
9033;DHT22;4551;53.164;8.210;2023-05-09T08:51:39;19.40;99.90
9033;DHT22;4551;53.164;8.210;2023-05-09T08:54:07;19.40;99.90
9033;DHT22;4551;53.164;8.210;2023-05-09T08:56:37;19.40;99.90
9033;DHT22;4551;53.164;8.210;2023-05-09T08:59:05;19.30;99.90
9033;DHT22;4551;53.164;8.210;2023-05-09T09:01:33;19.40;99.90
9033;DHT22;4551;53.164;8.210;2023-05-09T09:04:02;19.50;99.90
9033;DHT22;4551;53.164;8.210;2023-05-09T09:06:32;19.60;99.90
9033;DHT22;4551;53.164;8.210;2023-05-09T09:09:00;19.70;99.90
9033;DHT22;4551;53.164;8.210;2023-05-09T09:11:31;19.90;99.90
9033;DHT22;4551;53.164;8.210;2023-05-09T09:14:03;19.90;99.90
9033;DHT22;4551;53.164;8.210;2023-05-09T09:16:32;19.70;99.90
9033;DHT22;4551;53.164;8.210;2023-05-09T09:19:02;19.70;99.90
9033;DHT22;4551;53.164;8.210;2023-05-09T09:21:31;19.80;99.90
9033;DHT22;4551;53.164;8.210;2023-05-09T09:24:00;19.80;99.90
9033;DHT22;4551;53.164;8.210;2023-05-09T09:26:29;19.70;99.90
9033;DHT22;4551;53.164;8.210;2023-05-09T09:28:57;19.70;99.90
9033;DHT22;4551;53.164;8.210;2023-05-09T09:31:29;19.90;99.90
9033;DHT22;4551;53.164;8.210;2023-05-09T09:34:00;19.90;99.90
9033;DHT22;4551;53.164;8.210;2023-05-09T09:36:29;19.90;99.90
9033;DHT22;4551;53.164;8.210;2023-05-09T09:38:58;20.10;99.90
9033;DHT22;4551;53.164;8.210;2023-05-09T09:41:30;20.20;99.90
9033;DHT22;4551;53.164;8.210;2023-05-09T09:43:58;20.30;99.90
9033;DHT22;4551;53.164;8.210;2023-05-09T09:46:44;20.40;99.90
9033;DHT22;4551;53.164;8.210;2023-05-09T09:49:13;20.50;99.90
9033;DHT22;4551;53.164;8.210;2023-05-09T09:51:41;20.50;99.90
9033;DHT22;4551;53.164;8.210;2023-05-09T09:54:10;20.60;99.90
9033;DHT22;4551;53.164;8.210;2023-05-09T09:56:39;20.70;99.90
9033;DHT22;4551;53.164;8.210;2023-05-09T09:59:07;20.60;99.90
9033;DHT22;4551;53.164;8.210;2023-05-09T10:04:20;20.90;99.90
9033;DHT22;4551;53.164;8.210;2023-05-09T10:06:52;20.90;99.90
9033;DHT22;4551;53.164;8.210;2023-05-09T10:09:21;21.00;99.90
9033;DHT22;4551;53.164;8.210;2023-05-09T10:11:50;21.10;99.90
9033;DHT22;4551;53.164;8.210;2023-05-09T10:14:19;21.00;99.90
9033;DHT22;4551;53.164;8.210;2023-05-09T10:16:48;21.10;99.90
9033;DHT22;4551;53.164;8.210;2023-05-09T10:19:17;21.00;99.90
9033;DHT22;4551;53.164;8.210;2023-05-09T10:21:50;21.00;99.90
9033;DHT22;4551;53.164;8.210;2023-05-09T10:24:20;21.10;99.90
9033;DHT22;4551;53.164;8.210;2023-05-09T10:26:49;21.00;99.90
9033;DHT22;4551;53.164;8.210;2023-05-09T10:29:20;20.90;99.90
9033;DHT22;4551;53.164;8.210;2023-05-09T10:31:51;20.90;99.90
9033;DHT22;4551;53.164;8.210;2023-05-09T10:34:21;21.10;99.90
9033;DHT22;4551;53.164;8.210;2023-05-09T10:36:50;21.20;99.90
9033;DHT22;4551;53.164;8.210;2023-05-09T10:39:19;21.30;99.90
9033;DHT22;4551;53.164;8.210;2023-05-09T10:41:47;21.40;99.90
9033;DHT22;4551;53.164;8.210;2023-05-09T10:44:16;21.40;99.90
9033;DHT22;4551;53.164;8.210;2023-05-09T10:46:44;21.50;99.90
9033;DHT22;4551;53.164;8.210;2023-05-09T10:49:13;21.60;99.90
9033;DHT22;4551;53.164;8.210;2023-05-09T10:51:41;21.70;99.90
9033;DHT22;4551;53.164;8.210;2023-05-09T10:54:14;21.50;99.90
9033;DHT22;4551;53.164;8.210;2023-05-09T10:56:42;21.50;99.90
9033;DHT22;4551;53.164;8.210;2023-05-09T11:01:55;21.70;99.90
9033;DHT22;4551;53.164;8.210;2023-05-09T11:04:26;21.70;99.90
9033;DHT22;4551;53.164;8.210;2023-05-09T11:06:54;21.50;99.90
9033;DHT22;4551;53.164;8.210;2023-05-09T11:09:29;21.50;99.90
9033;DHT22;4551;53.164;8.210;2023-05-09T11:12:08;21.40;99.90
9033;DHT22;4551;53.164;8.210;2023-05-09T11:14:38;21.60;99.90
9033;DHT22;4551;53.164;8.210;2023-05-09T11:17:07;21.70;99.90
9033;DHT22;4551;53.164;8.210;2023-05-09T11:19:35;21.80;99.90
9033;DHT22;4551;53.164;8.210;2023-05-09T11:22:10;21.80;99.90
9033;DHT22;4551;53.164;8.210;2023-05-09T11:24:41;21.80;99.90
9033;DHT22;4551;53.164;8.210;2023-05-09T11:27:14;21.80;99.90
9033;DHT22;4551;53.164;8.210;2023-05-09T11:29:43;21.70;99.90
9033;DHT22;4551;53.164;8.210;2023-05-09T11:32:14;21.60;99.90
9033;DHT22;4551;53.164;8.210;2023-05-09T11:34:43;21.50;99.90
9033;DHT22;4551;53.164;8.210;2023-05-09T11:37:11;21.40;99.90
9033;DHT22;4551;53.164;8.210;2023-05-09T11:39:55;21.30;99.90
9033;DHT22;4551;53.164;8.210;2023-05-09T11:42:24;21.40;99.90
9033;DHT22;4551;53.164;8.210;2023-05-09T11:44:52;21.40;99.90
9033;DHT22;4551;53.164;8.210;2023-05-09T11:47:20;21.40;99.90
9033;DHT22;4551;53.164;8.210;2023-05-09T11:49:48;21.30;99.90
9033;DHT22;4551;53.164;8.210;2023-05-09T11:52:17;21.10;99.90
9033;DHT22;4551;53.164;8.210;2023-05-09T11:54:45;21.00;99.90
9033;DHT22;4551;53.164;8.210;2023-05-09T11:57:15;21.10;99.90
9033;DHT22;4551;53.164;8.210;2023-05-09T11:59:43;21.20;99.90
9033;DHT22;4551;53.164;8.210;2023-05-09T12:02:12;21.20;99.90
9033;DHT22;4551;53.164;8.210;2023-05-09T12:04:40;21.00;99.90
9033;DHT22;4551;53.164;8.210;2023-05-09T12:07:10;21.00;99.90
9033;DHT22;4551;53.164;8.210;2023-05-09T12:09:38;21.00;99.90
9033;DHT22;4551;53.164;8.210;2023-05-09T12:12:09;20.90;99.90
9033;DHT22;4551;53.164;8.210;2023-05-09T12:14:39;20.90;99.90
9033;DHT22;4551;53.164;8.210;2023-05-09T12:17:07;21.00;99.90
9033;DHT22;4551;53.164;8.210;2023-05-09T12:19:35;21.00;99.90
9033;DHT22;4551;53.164;8.210;2023-05-09T12:22:03;20.90;99.90
9033;DHT22;4551;53.164;8.210;2023-05-09T12:24:34;20.70;99.90
9033;DHT22;4551;53.164;8.210;2023-05-09T12:27:02;20.70;99.90
9033;DHT22;4551;53.164;8.210;2023-05-09T12:29:30;20.60;99.90
9033;DHT22;4551;53.164;8.210;2023-05-09T12:32:00;20.50;99.90
9033;DHT22;4551;53.164;8.210;2023-05-09T12:34:28;20.40;99.90
9033;DHT22;4551;53.164;8.210;2023-05-09T12:36:56;20.40;99.90
9033;DHT22;4551;53.164;8.210;2023-05-09T12:39:25;20.40;99.90
9033;DHT22;4551;53.164;8.210;2023-05-09T12:41:53;20.30;99.90
9033;DHT22;4551;53.164;8.210;2023-05-09T12:44:27;20.30;99.90
9033;DHT22;4551;53.164;8.210;2023-05-09T12:46:56;20.40;99.90
9033;DHT22;4551;53.164;8.210;2023-05-09T12:49:26;20.40;99.90
9033;DHT22;4551;53.164;8.210;2023-05-09T12:51:56;20.50;99.90
9033;DHT22;4551;53.164;8.210;2023-05-09T12:54:25;20.70;99.90
9033;DHT22;4551;53.164;8.210;2023-05-09T12:56:53;20.90;99.90
9033;DHT22;4551;53.164;8.210;2023-05-09T12:59:22;21.00;99.90
9033;DHT22;4551;53.164;8.210;2023-05-09T13:01:52;21.10;99.90
9033;DHT22;4551;53.164;8.210;2023-05-09T13:04:20;21.10;99.90
9033;DHT22;4551;53.164;8.210;2023-05-09T13:06:51;21.10;99.90
9033;DHT22;4551;53.164;8.210;2023-05-09T13:09:21;21.10;99.90
9033;DHT22;4551;53.164;8.210;2023-05-09T13:11:49;21.10;99.90
9033;DHT22;4551;53.164;8.210;2023-05-09T13:14:17;21.20;99.90
9033;DHT22;4551;53.164;8.210;2023-05-09T13:16:45;21.00;99.90
9033;DHT22;4551;53.164;8.210;2023-05-09T13:19:13;20.90;99.90
9033;DHT22;4551;53.164;8.210;2023-05-09T13:21:41;20.90;99.90
9033;DHT22;4551;53.164;8.210;2023-05-09T13:24:11;20.80;99.90
9033;DHT22;4551;53.164;8.210;2023-05-09T13:26:39;20.90;99.90
9033;DHT22;4551;53.164;8.210;2023-05-09T13:29:07;20.90;99.90
9033;DHT22;4551;53.164;8.210;2023-05-09T13:31:35;21.10;99.90
9033;DHT22;4551;53.164;8.210;2023-05-09T13:34:03;21.10;99.90
9033;DHT22;4551;53.164;8.210;2023-05-09T13:36:31;21.10;99.90
9033;DHT22;4551;53.164;8.210;2023-05-09T13:38:59;21.10;99.90
9033;DHT22;4551;53.164;8.210;2023-05-09T13:41:28;21.10;99.90
9033;DHT22;4551;53.164;8.210;2023-05-09T13:43:58;21.10;99.90
9033;DHT22;4551;53.164;8.210;2023-05-09T13:46:26;21.10;99.90
9033;DHT22;4551;53.164;8.210;2023-05-09T13:48:54;21.10;99.90
9033;DHT22;4551;53.164;8.210;2023-05-09T13:51:22;21.10;99.90
9033;DHT22;4551;53.164;8.210;2023-05-09T13:53:50;21.20;99.90
9033;DHT22;4551;53.164;8.210;2023-05-09T13:56:18;21.10;99.90
9033;DHT22;4551;53.164;8.210;2023-05-09T13:58:47;20.90;99.90
9033;DHT22;4551;53.164;8.210;2023-05-09T14:01:15;20.80;99.90
9033;DHT22;4551;53.164;8.210;2023-05-09T14:03:44;20.70;99.90
9033;DHT22;4551;53.164;8.210;2023-05-09T14:06:14;20.70;99.90
9033;DHT22;4551;53.164;8.210;2023-05-09T14:08:42;20.70;99.90
9033;DHT22;4551;53.164;8.210;2023-05-09T14:11:10;20.70;99.90
9033;DHT22;4551;53.164;8.210;2023-05-09T14:13:38;20.70;99.90
9033;DHT22;4551;53.164;8.210;2023-05-09T14:16:09;20.70;99.90
9033;DHT22;4551;53.164;8.210;2023-05-09T14:18:37;20.80;99.90
9033;DHT22;4551;53.164;8.210;2023-05-09T14:21:05;20.90;99.90
9033;DHT22;4551;53.164;8.210;2023-05-09T14:23:33;20.90;99.90
9033;DHT22;4551;53.164;8.210;2023-05-09T14:26:01;20.90;99.90
9033;DHT22;4551;53.164;8.210;2023-05-09T14:28:29;21.00;99.90
9033;DHT22;4551;53.164;8.210;2023-05-09T14:30:57;21.00;99.90
9033;DHT22;4551;53.164;8.210;2023-05-09T14:33:26;21.10;99.90
9033;DHT22;4551;53.164;8.210;2023-05-09T14:35:54;21.00;99.90
9033;DHT22;4551;53.164;8.210;2023-05-09T14:38:22;21.10;99.90
9033;DHT22;4551;53.164;8.210;2023-05-09T14:40:50;21.00;99.90
9033;DHT22;4551;53.164;8.210;2023-05-09T14:43:18;20.50;99.90
9033;DHT22;4551;53.164;8.210;2023-05-09T14:45:47;21.00;99.90
9033;DHT22;4551;53.164;8.210;2023-05-09T14:48:15;21.00;99.90
9033;DHT22;4551;53.164;8.210;2023-05-09T14:50:45;20.90;99.90
9033;DHT22;4551;53.164;8.210;2023-05-09T14:53:15;20.80;99.90
9033;DHT22;4551;53.164;8.210;2023-05-09T14:55:43;20.60;99.90
9033;DHT22;4551;53.164;8.210;2023-05-09T14:58:11;20.10;99.90
9033;DHT22;4551;53.164;8.210;2023-05-09T15:00:41;19.60;99.90
9033;DHT22;4551;53.164;8.210;2023-05-09T15:03:09;19.50;99.90
9033;DHT22;4551;53.164;8.210;2023-05-09T15:05:37;19.40;99.90
9033;DHT22;4551;53.164;8.210;2023-05-09T15:08:07;19.30;99.90
9033;DHT22;4551;53.164;8.210;2023-05-09T15:10:35;19.00;99.90
9033;DHT22;4551;53.164;8.210;2023-05-09T15:13:03;19.00;99.90
9033;DHT22;4551;53.164;8.210;2023-05-09T15:15:31;19.00;99.90
9033;DHT22;4551;53.164;8.210;2023-05-09T15:17:59;19.10;99.90
9033;DHT22;4551;53.164;8.210;2023-05-09T15:20:28;19.20;99.90
9033;DHT22;4551;53.164;8.210;2023-05-09T15:22:56;19.20;99.90
9033;DHT22;4551;53.164;8.210;2023-05-09T15:25:25;19.00;99.90
9033;DHT22;4551;53.164;8.210;2023-05-09T15:27:53;19.10;99.90
9033;DHT22;4551;53.164;8.210;2023-05-09T15:30:21;19.20;99.90
9033;DHT22;4551;53.164;8.210;2023-05-09T15:32:49;19.20;99.90
9033;DHT22;4551;53.164;8.210;2023-05-09T15:35:17;19.20;99.90
9033;DHT22;4551;53.164;8.210;2023-05-09T15:37:45;19.30;99.90
9033;DHT22;4551;53.164;8.210;2023-05-09T15:40:13;19.20;99.90
9033;DHT22;4551;53.164;8.210;2023-05-09T15:42:43;19.20;99.90
9033;DHT22;4551;53.164;8.210;2023-05-09T15:45:13;19.30;99.90
9033;DHT22;4551;53.164;8.210;2023-05-09T15:47:42;19.20;99.90
9033;DHT22;4551;53.164;8.210;2023-05-09T15:50:10;19.20;99.90
9033;DHT22;4551;53.164;8.210;2023-05-09T15:52:38;19.20;99.90
9033;DHT22;4551;53.164;8.210;2023-05-09T15:55:07;19.30;99.90
9033;DHT22;4551;53.164;8.210;2023-05-09T15:57:35;19.30;99.90
9033;DHT22;4551;53.164;8.210;2023-05-09T16:00:05;19.30;99.90
9033;DHT22;4551;53.164;8.210;2023-05-09T16:02:34;19.30;99.90
9033;DHT22;4551;53.164;8.210;2023-05-09T16:05:02;19.30;99.90
9033;DHT22;4551;53.164;8.210;2023-05-09T16:07:30;19.30;99.90
9033;DHT22;4551;53.164;8.210;2023-05-09T16:10:01;19.30;99.90
9033;DHT22;4551;53.164;8.210;2023-05-09T16:12:29;19.30;99.90
9033;DHT22;4551;53.164;8.210;2023-05-09T16:14:59;19.30;99.90
9033;DHT22;4551;53.164;8.210;2023-05-09T16:17:28;19.30;99.90
9033;DHT22;4551;53.164;8.210;2023-05-09T16:19:57;19.20;99.90